This is the latest recevied weather packets stored in our database for station/object KO6MEX-13. If no packets are shown the sender has not sent any weather packets the latest 1 day(s).
| Time | Temp. | Humidity | Pressure | Rain* | Wind** | Luminosity | Snow |
|---|---|---|---|---|---|---|---|
| 1777998554 | 16.67° C | 64% | 1019 hPa | 0 mm | 2.24 m/s, 208° | 189 W/m² | - |
| 1777998249 | 16.67° C | 64% | 1019 hPa | 0 mm | 1.34 m/s, 212° | 579 W/m² | - |
| 1777997947 | 16.67° C | 63% | 1019 hPa | 0 mm | 1.34 m/s, 188° | 510 W/m² | - |
| 1777997643 | 16.67° C | 62% | 1018.9 hPa | 0 mm | 1.34 m/s, 230° | 401 W/m² | - |
| 1777997340 | 16.11° C | 63% | 1018.9 hPa | 0 mm | 0 m/s | 299 W/m² | - |
| 1777997039 | 16.67° C | 63% | 1018.9 hPa | 0 mm | 0.89 m/s, 245° | 401 W/m² | - |
| 1777996735 | 16.67° C | 64% | 1019 hPa | 0 mm | 1.34 m/s, 278° | 373 W/m² | - |
| 1777996431 | 16.67° C | 63% | 1018.8 hPa | 0 mm | 0 m/s | 404 W/m² | - |
| 1777996128 | 16.67° C | 65% | 1018.9 hPa | 0 mm | 0.45 m/s, 177° | 387 W/m² | - |
| 1777995824 | 16.11° C | 67% | 1018.9 hPa | 0 mm | 0 m/s | 355 W/m² | - |
| 1777995520 | 16.11° C | 65% | 1018.9 hPa | 0 mm | 1.34 m/s, 202° | 330 W/m² | - |
| 1777995217 | 16.11° C | 68% | 1018.9 hPa | 0 mm | 0 m/s | 291 W/m² | - |
| 1777994915 | 16.67° C | 67% | 1018.7 hPa | 0 mm | 0.89 m/s, 203° | 274 W/m² | - |
| 1777994612 | 15.56° C | 71% | 1018.7 hPa | 0 mm | 0.45 m/s, 41° | 282 W/m² | - |
| 1777994311 | 15.56° C | 71% | 1018.8 hPa | 0 mm | 1.34 m/s, 211° | 282 W/m² | - |
| 1777994008 | 15.56° C | 70% | 1018.6 hPa | 0 mm | 0.89 m/s, 275° | 259 W/m² | - |
| 1777993706 | 15.56° C | 72% | 1018.6 hPa | 0 mm | 0.89 m/s, 232° | 225 W/m² | - |
| 1777993403 | 15.56° C | 74% | 1018.9 hPa | 0 mm | 0.45 m/s, 340° | 181 W/m² | - |
| 1777993103 | 15° C | 75% | 1019 hPa | 0 mm | 0 m/s | 144 W/m² | - |
| 1777992802 | 15° C | 76% | 1018.9 hPa | 0 mm | 0.45 m/s, 41° | 150 W/m² | - |
| 1777992499 | 14.44° C | 78% | 1019 hPa | 0 mm | 0.89 m/s, 32° | 147 W/m² | - |
| 1777992197 | 13.89° C | 80% | 1018.7 hPa | 0 mm | 0 m/s | 139 W/m² | - |
| 1777991894 | 13.33° C | 83% | 1018.8 hPa | 0 mm | 0.45 m/s, 43° | 98 W/m² | - |
| 1777991591 | 12.78° C | 86% | 1018.7 hPa | 0 mm | 1.34 m/s, 21° | 99 W/m² | - |
| 1777991288 | 11.67° C | 90% | 1018.8 hPa | 0 mm | 0 m/s | 62 W/m² | - |
* Rain latest hour (hover to see other rain measurements)
** Current wind speed in m/s (hover to see current wind gust speed)